createdAt,value
2018-09-19T00:00:02.030Z,16.59
2018-09-19T00:02:30.582Z,16.59
2018-09-19T00:04:59.201Z,16.54
2018-09-19T00:07:27.870Z,16.58
2018-09-19T00:09:56.320Z,16.59
2018-09-19T00:12:24.861Z,16.53
2018-09-19T00:14:54.231Z,16.50
2018-09-19T00:17:22.834Z,16.48
2018-09-19T00:19:51.445Z,16.57
2018-09-19T00:22:19.934Z,16.46
2018-09-19T00:24:48.500Z,16.46
2018-09-19T00:27:17.173Z,16.46
2018-09-19T00:29:45.727Z,16.42
2018-09-19T00:32:15.187Z,16.38
2018-09-19T00:34:43.729Z,16.36
2018-09-19T00:37:12.219Z,16.32
2018-09-19T00:39:40.722Z,16.33
2018-09-19T00:42:09.236Z,16.33
2018-09-19T00:44:38.006Z,16.23
2018-09-19T00:47:06.675Z,16.22
2018-09-19T00:49:35.178Z,16.27
2018-09-19T00:52:03.734Z,16.25
2018-09-19T00:54:32.363Z,16.21
2018-09-19T00:57:01.174Z,16.17
2018-09-19T00:59:29.670Z,16.13
2018-09-19T01:01:58.251Z,16.13
2018-09-19T01:04:26.840Z,16.13
2018-09-19T01:06:55.338Z,16.16
2018-09-19T01:09:24.025Z,16.13
2018-09-19T01:11:52.570Z,16.11
2018-09-19T01:14:21.592Z,16.00
2018-09-19T01:16:50.064Z,16.03
2018-09-19T01:19:18.705Z,16.07
2018-09-19T01:21:47.230Z,15.96
2018-09-19T01:24:15.843Z,15.91
2018-09-19T01:26:44.518Z,15.89
2018-09-19T01:29:13.142Z,15.76
2018-09-19T01:31:42.348Z,15.81
2018-09-19T01:34:10.849Z,15.76
2018-09-19T01:36:39.412Z,15.68
2018-09-19T01:39:08.196Z,15.66
2018-09-19T01:41:36.785Z,15.75
2018-09-19T01:44:05.437Z,15.68
2018-09-19T01:46:33.936Z,15.66
2018-09-19T01:49:02.841Z,15.60
2018-09-19T01:51:31.353Z,15.56
2018-09-19T01:53:59.905Z,15.68
2018-09-19T01:56:28.518Z,15.59
2018-09-19T01:58:57.835Z,15.51
2018-09-19T02:01:26.673Z,15.48
2018-09-19T02:03:55.163Z,15.59
2018-09-19T02:06:23.724Z,15.48
2018-09-19T02:08:52.250Z,15.41
2018-09-19T02:11:20.831Z,15.40
2018-09-19T02:13:49.339Z,15.37
2018-09-19T02:16:18.602Z,15.32
2018-09-19T02:18:47.184Z,15.31
2018-09-19T02:21:15.866Z,15.22
2018-09-19T02:23:44.579Z,15.27
2018-09-19T02:26:13.151Z,15.19
2018-09-19T02:28:42.804Z,15.21
2018-09-19T02:31:11.266Z,15.18
2018-09-19T02:33:39.737Z,15.21
2018-09-19T02:36:08.294Z,15.24
2018-09-19T02:38:36.927Z,15.19
2018-09-19T02:41:05.873Z,15.29
2018-09-19T02:43:34.430Z,15.29
2018-09-19T02:46:03.562Z,15.24
2018-09-19T02:48:32.052Z,15.19
2018-09-19T02:51:00.553Z,15.23
2018-09-19T02:53:29.321Z,15.21
2018-09-19T02:55:58.590Z,15.22
2018-09-19T02:58:27.107Z,15.15
2018-09-19T03:00:55.684Z,15.12
2018-09-19T03:03:24.185Z,15.09
2018-09-19T03:05:52.713Z,15.06
2018-09-19T03:08:21.185Z,15.04
2018-09-19T03:10:50.297Z,14.99
2018-09-19T03:13:18.866Z,15.00
2018-09-19T03:15:47.442Z,15.01
2018-09-19T03:18:16.145Z,14.95
2018-09-19T03:20:44.662Z,14.94
2018-09-19T03:23:13.207Z,14.96
2018-09-19T03:25:41.733Z,15.02
2018-09-19T03:28:10.612Z,14.94
2018-09-19T03:30:39.183Z,14.98
2018-09-19T03:33:07.738Z,14.90
2018-09-19T03:35:36.552Z,14.89
2018-09-19T03:38:05.885Z,14.89
2018-09-19T03:40:34.868Z,14.83
2018-09-19T03:43:04.240Z,14.89
2018-09-19T03:45:32.819Z,14.93
2018-09-19T03:48:01.330Z,14.84
2018-09-19T03:50:30.588Z,14.78
2018-09-19T03:52:59.144Z,14.77
2018-09-19T03:55:27.693Z,14.76
2018-09-19T03:57:56.726Z,14.75
2018-09-19T04:00:27.070Z,14.82
2018-09-19T04:02:55.542Z,14.78
2018-09-19T04:05:24.326Z,14.74
2018-09-19T04:07:52.905Z,14.72
2018-09-19T04:10:21.484Z,14.71
2018-09-19T04:12:50.189Z,14.61
2018-09-19T04:15:18.701Z,14.67
2018-09-19T04:17:47.263Z,14.56
2018-09-19T04:20:15.791Z,14.64
2018-09-19T04:22:45.134Z,14.63
2018-09-19T04:25:13.719Z,14.56
2018-09-19T04:27:42.199Z,14.54
2018-09-19T04:30:10.760Z,14.57
2018-09-19T04:32:39.223Z,14.54
2018-09-19T04:35:08.440Z,14.58
2018-09-19T04:37:36.977Z,14.66
2018-09-19T04:40:05.710Z,14.61
2018-09-19T04:42:34.281Z,14.60
2018-09-19T04:45:02.950Z,14.60
2018-09-19T04:47:31.410Z,14.58
2018-09-19T04:49:59.933Z,14.59
2018-09-19T04:52:29.188Z,14.59
2018-09-19T04:54:58.930Z,14.52
2018-09-19T04:57:27.501Z,14.56
2018-09-19T04:59:56.375Z,14.58
2018-09-19T05:02:24.946Z,14.54
2018-09-19T05:04:54.076Z,14.61
2018-09-19T05:07:22.693Z,14.71
2018-09-19T05:09:51.234Z,14.76
2018-09-19T05:12:19.929Z,14.77
2018-09-19T05:14:48.423Z,14.78
2018-09-19T05:17:16.955Z,14.79
2018-09-19T05:19:45.441Z,14.70
2018-09-19T05:22:14.029Z,14.68
2018-09-19T05:24:42.543Z,14.70
2018-09-19T05:27:11.092Z,14.75
2018-09-19T05:29:39.603Z,14.76
2018-09-19T05:32:08.134Z,14.73
2018-09-19T05:34:37.602Z,14.77
2018-09-19T05:37:06.139Z,14.84
2018-09-19T05:39:35.285Z,14.87
2018-09-19T05:42:03.993Z,14.93
2018-09-19T05:44:32.500Z,15.06
2018-09-19T05:47:01.583Z,15.15
2018-09-19T05:49:30.072Z,15.26
2018-09-19T05:51:58.565Z,15.37
2018-09-19T05:54:28.327Z,15.49
2018-09-19T05:56:56.862Z,15.63
2018-09-19T05:59:25.392Z,15.64
2018-09-19T06:01:53.913Z,15.73
2018-09-19T06:04:22.457Z,15.82
2018-09-19T06:06:51.051Z,15.93
2018-09-19T06:09:19.643Z,15.97
2018-09-19T06:11:48.179Z,16.08
2018-09-19T06:14:16.713Z,16.14
2018-09-19T06:16:45.257Z,16.24
2018-09-19T06:19:13.781Z,16.34
2018-09-19T06:21:42.339Z,16.42
2018-09-19T06:24:10.805Z,16.56
2018-09-19T06:26:39.327Z,16.57
2018-09-19T06:29:07.806Z,16.67
2018-09-19T06:31:36.325Z,16.74
2018-09-19T06:34:04.865Z,16.86
2018-09-19T06:36:33.338Z,16.92
2018-09-19T06:39:01.889Z,17.01
2018-09-19T06:41:30.393Z,17.13
2018-09-19T06:43:58.884Z,17.21
2018-09-19T06:46:27.423Z,17.35
2018-09-19T06:48:55.920Z,17.45
2018-09-19T06:51:24.420Z,17.49
2018-09-19T06:53:52.942Z,17.57
2018-09-19T06:56:21.510Z,17.59
2018-09-19T06:58:50.061Z,17.74
2018-09-19T07:01:18.635Z,17.78
2018-09-19T07:03:47.167Z,17.92
2018-09-19T07:06:15.693Z,18.03
2018-09-19T07:08:44.283Z,18.03
2018-09-19T07:11:13.036Z,18.16
2018-09-19T07:13:41.591Z,18.22
2018-09-19T07:16:10.185Z,18.20
2018-09-19T07:18:38.765Z,18.38
2018-09-19T07:21:07.257Z,18.36
2018-09-19T07:23:35.853Z,18.42
2018-09-19T07:26:04.445Z,18.57
2018-09-19T07:28:32.946Z,18.56
2018-09-19T07:31:08.945Z,18.61
2018-09-19T07:33:38.180Z,18.70
2018-09-19T07:36:06.719Z,18.83
2018-09-19T07:38:35.221Z,19.04
2018-09-19T07:41:03.758Z,19.19
2018-09-19T07:43:32.234Z,19.31
2018-09-19T07:46:00.734Z,19.36
2018-09-19T07:48:29.748Z,19.42
2018-09-19T07:50:59.106Z,19.49
2018-09-19T07:53:35.549Z,19.59
2018-09-19T07:56:04.567Z,19.62
2018-09-19T07:58:33.407Z,19.72
2018-09-19T08:01:02.002Z,19.82
2018-09-19T08:03:30.413Z,19.90
2018-09-19T08:05:58.958Z,20.11
2018-09-19T08:08:27.524Z,20.24
2018-09-19T08:10:56.039Z,20.28
2018-09-19T08:13:24.522Z,20.27
2018-09-19T08:15:53.070Z,20.35
2018-09-19T08:18:21.561Z,20.46
2018-09-19T08:20:50.073Z,20.56
2018-09-19T08:23:18.574Z,20.67
2018-09-19T08:25:47.054Z,20.79
2018-09-19T08:28:15.558Z,20.76
2018-09-19T08:30:44.102Z,20.83
2018-09-19T08:33:12.653Z,20.89
2018-09-19T08:35:41.196Z,20.97
2018-09-19T08:38:09.743Z,21.08
2018-09-19T08:40:38.298Z,21.11
2018-09-19T08:43:06.874Z,21.21
2018-09-19T08:45:35.369Z,21.34
2018-09-19T08:48:03.977Z,21.40
2018-09-19T08:50:32.498Z,21.53
2018-09-19T08:53:01.924Z,21.43
2018-09-19T08:55:30.612Z,21.57
2018-09-19T08:57:59.567Z,21.74
2018-09-19T09:00:28.094Z,21.73
2018-09-19T09:04:25.732Z,21.94
2018-09-19T09:06:54.373Z,22.08
2018-09-19T09:09:23.179Z,22.15
2018-09-19T09:11:51.686Z,22.24
2018-09-19T09:14:20.906Z,22.36
2018-09-19T09:16:50.043Z,22.51
2018-09-19T09:19:19.078Z,22.50
2018-09-19T09:24:15.033Z,22.52
2018-09-19T09:26:43.534Z,22.56
2018-09-19T09:29:12.058Z,22.65
2018-09-19T09:31:40.589Z,22.78
2018-09-19T09:34:09.145Z,22.84
2018-09-19T09:36:37.800Z,23.00
2018-09-19T09:39:07.053Z,23.15
2018-09-19T09:41:35.622Z,23.23
2018-09-19T09:44:04.226Z,23.58
2018-09-19T09:46:33.472Z,23.87
2018-09-19T09:49:01.995Z,23.87
2018-09-19T09:51:30.526Z,23.85
2018-09-19T09:53:59.117Z,24.00
2018-09-19T09:56:28.742Z,24.48
2018-09-19T09:58:57.322Z,24.35
2018-09-19T10:01:25.825Z,24.30
2018-09-19T10:03:54.292Z,24.28
2018-09-19T10:06:22.847Z,23.94
2018-09-19T10:08:51.301Z,23.86
2018-09-19T10:11:19.980Z,23.89
2018-09-19T10:13:49.275Z,23.95
2018-09-19T10:16:17.807Z,24.35
2018-09-19T10:18:46.337Z,24.75
2018-09-19T10:21:14.866Z,25.41
2018-09-19T10:23:43.361Z,24.66
2018-09-19T10:26:11.930Z,24.61
2018-09-19T10:28:40.450Z,24.62
2018-09-19T10:31:08.986Z,24.37
2018-09-19T10:33:37.526Z,23.99
2018-09-19T10:36:06.668Z,24.03
2018-09-19T10:38:35.158Z,24.20
2018-09-19T10:41:03.666Z,24.30
2018-09-19T10:43:32.186Z,24.57
2018-09-19T10:46:00.743Z,24.87
2018-09-19T10:48:29.275Z,24.82
2018-09-19T10:50:57.781Z,25.08
2018-09-19T10:53:26.422Z,24.92
2018-09-19T10:55:54.957Z,25.01
2018-09-19T10:58:23.633Z,24.77
2018-09-19T11:00:52.176Z,24.94
2018-09-19T11:03:21.041Z,24.33
2018-09-19T11:05:49.566Z,23.95
2018-09-19T11:08:18.117Z,24.26
2018-09-19T11:10:46.817Z,23.98
2018-09-19T11:13:16.044Z,24.00
2018-09-19T11:15:44.580Z,24.20
2018-09-19T11:18:13.129Z,24.32
2018-09-19T11:20:41.700Z,24.26
2018-09-19T11:23:10.227Z,24.22
2018-09-19T11:25:38.730Z,24.28
2018-09-19T11:28:09.502Z,24.52
2018-09-19T11:30:39.734Z,24.28
2018-09-19T11:33:08.240Z,24.18
2018-09-19T11:35:36.746Z,24.16
2018-09-19T11:38:05.869Z,24.10
2018-09-19T11:40:34.377Z,24.07
2018-09-19T11:43:02.903Z,24.20
2018-09-19T11:45:31.381Z,24.36
2018-09-19T11:47:59.890Z,24.39
2018-09-19T11:50:28.934Z,24.35
2018-09-19T11:52:57.517Z,24.44
2018-09-19T11:55:26.014Z,24.43
2018-09-19T11:57:54.569Z,24.44
2018-09-19T12:00:23.089Z,24.10
2018-09-19T12:02:51.794Z,24.02
2018-09-19T12:05:20.901Z,24.17
2018-09-19T12:07:49.482Z,24.15
2018-09-19T12:10:18.120Z,24.01
2018-09-19T12:12:46.793Z,23.92
2018-09-19T12:15:15.319Z,24.04
2018-09-19T12:17:43.881Z,24.27
2018-09-19T12:20:12.425Z,24.32
2018-09-19T12:22:41.860Z,24.46
2018-09-19T12:25:10.421Z,24.60
2018-09-19T12:27:38.947Z,24.55
2018-09-19T12:30:07.485Z,24.46
2018-09-19T12:32:35.970Z,24.62
2018-09-19T12:35:04.704Z,24.59
2018-09-19T12:37:34.239Z,24.51
2018-09-19T12:40:02.790Z,24.61
2018-09-19T12:42:31.325Z,24.67
2018-09-19T12:44:59.821Z,24.63
2018-09-19T12:47:28.353Z,24.66
2018-09-19T12:49:56.892Z,24.56
2018-09-19T12:52:25.433Z,24.60
2018-09-19T12:54:53.958Z,24.73
2018-09-19T12:57:22.513Z,24.85
2018-09-19T12:59:50.981Z,24.86
2018-09-19T13:02:19.450Z,24.84
2018-09-19T13:04:47.986Z,24.69
2018-09-19T13:07:16.502Z,24.58
2018-09-19T13:09:44.990Z,24.65
2018-09-19T13:12:13.768Z,24.61
2018-09-19T13:14:42.457Z,24.72
2018-09-19T13:17:11.616Z,24.78
2018-09-19T13:19:40.613Z,24.74
2018-09-19T13:22:09.362Z,24.78
2018-09-19T13:24:37.875Z,24.94
2018-09-19T13:27:06.402Z,25.00
2018-09-19T13:29:34.931Z,24.92
2018-09-19T13:32:03.442Z,24.92
2018-09-19T13:34:31.950Z,24.92
2018-09-19T13:37:00.642Z,24.93
2018-09-19T13:39:29.363Z,24.94
2018-09-19T13:41:57.865Z,24.84
2018-09-19T13:44:26.438Z,24.96
2018-09-19T13:46:54.974Z,24.94
2018-09-19T13:49:30.914Z,24.91
2018-09-19T13:51:59.507Z,24.89
2018-09-19T13:54:27.981Z,24.97
2018-09-19T13:56:56.503Z,24.87
2018-09-19T13:59:25.021Z,24.91
2018-09-19T14:01:53.546Z,24.90
2018-09-19T14:04:22.045Z,24.88
2018-09-19T14:06:50.790Z,24.94
2018-09-19T14:09:19.379Z,24.94
2018-09-19T14:11:47.986Z,24.95
2018-09-19T14:14:16.537Z,24.96
2018-09-19T14:16:45.049Z,25.01
2018-09-19T14:19:14.864Z,25.08
2018-09-19T14:21:43.357Z,25.13
2018-09-19T14:24:11.836Z,24.96
2018-09-19T14:26:40.423Z,24.86
2018-09-19T14:29:08.966Z,24.84
2018-09-19T14:31:37.629Z,24.84
2018-09-19T14:34:06.113Z,24.89
2018-09-19T14:36:34.625Z,24.95
2018-09-19T14:39:03.793Z,24.93
2018-09-19T14:41:32.294Z,24.89
2018-09-19T14:44:00.881Z,24.87
2018-09-19T14:46:29.422Z,24.77
2018-09-19T14:48:57.975Z,24.79
2018-09-19T14:51:26.503Z,24.87
2018-09-19T14:53:54.965Z,24.81
2018-09-19T14:56:23.487Z,24.80
2018-09-19T14:58:52.006Z,24.77
2018-09-19T15:01:20.610Z,24.80
2018-09-19T15:03:49.141Z,24.87
2018-09-19T15:06:17.673Z,24.81
2018-09-19T15:08:46.224Z,24.81
2018-09-19T15:11:14.729Z,24.74
2018-09-19T15:13:43.368Z,24.71
2018-09-19T15:16:11.926Z,24.68
2018-09-19T15:18:40.469Z,24.63
2018-09-19T15:21:08.965Z,24.67
2018-09-19T15:23:37.479Z,24.61
2018-09-19T15:26:05.989Z,24.52
2018-09-19T15:28:34.723Z,24.61
2018-09-19T15:31:03.236Z,24.60
2018-09-19T15:33:31.797Z,24.57
2018-09-19T15:36:00.376Z,24.53
2018-09-19T15:38:28.999Z,24.58
2018-09-19T15:40:57.438Z,24.62
2018-09-19T15:43:25.954Z,24.55
2018-09-19T15:45:54.467Z,24.51
2018-09-19T15:48:22.972Z,24.42
2018-09-19T15:50:52.489Z,24.41
2018-09-19T15:53:21.118Z,24.28
2018-09-19T15:55:49.643Z,24.23
2018-09-19T15:58:19.515Z,24.22
2018-09-19T16:00:48.034Z,24.15
2018-09-19T16:03:16.553Z,24.04
2018-09-19T16:05:45.241Z,24.03
2018-09-19T16:08:13.784Z,23.99
2018-09-19T16:10:42.577Z,24.00
2018-09-19T16:13:11.099Z,23.95
2018-09-19T16:15:40.241Z,23.85
2018-09-19T16:18:08.841Z,23.87
2018-09-19T16:20:37.321Z,23.71
2018-09-19T16:23:05.813Z,23.66
2018-09-19T16:25:34.346Z,23.64
2018-09-19T16:28:02.843Z,23.58
2018-09-19T16:30:31.395Z,23.48
2018-09-19T16:32:59.931Z,23.36
2018-09-19T16:35:28.409Z,23.27
2018-09-19T16:37:57.645Z,23.24
2018-09-19T16:40:26.362Z,23.10
2018-09-19T16:42:55.562Z,23.09
2018-09-19T16:45:24.195Z,23.05
2018-09-19T16:47:52.760Z,22.93
2018-09-19T16:50:22.062Z,22.84
2018-09-19T16:52:50.623Z,22.65
2018-09-19T16:55:19.124Z,22.59
2018-09-19T16:57:47.641Z,22.43
2018-09-19T17:00:16.458Z,22.38
2018-09-19T17:02:47.734Z,22.30
2018-09-19T17:05:16.244Z,22.28
2018-09-19T17:07:45.166Z,22.16
2018-09-19T17:10:13.889Z,22.16
2018-09-19T17:12:42.434Z,22.10
2018-09-19T17:15:10.963Z,22.03
2018-09-19T17:17:39.501Z,22.02
2018-09-19T17:20:08.222Z,21.94
2018-09-19T17:22:37.697Z,21.76
2018-09-19T17:25:06.226Z,21.68
2018-09-19T17:27:34.965Z,21.64
2018-09-19T17:30:03.922Z,21.55
2018-09-19T17:32:32.437Z,21.43
2018-09-19T17:35:01.105Z,21.23
2018-09-19T17:37:31.201Z,21.11
2018-09-19T17:39:59.750Z,20.98
2018-09-19T17:42:28.306Z,21.05
2018-09-19T17:44:56.865Z,21.00
2018-09-19T17:47:25.657Z,20.98
2018-09-19T17:49:54.301Z,20.94
2018-09-19T17:52:22.865Z,20.83
2018-09-19T17:54:51.607Z,20.79
2018-09-19T17:57:20.173Z,20.82
2018-09-19T17:59:48.651Z,20.87
2018-09-19T18:02:18.001Z,20.81
2018-09-19T18:04:46.633Z,20.67
2018-09-19T18:07:15.247Z,20.72
2018-09-19T18:09:43.817Z,20.76
2018-09-19T18:12:13.129Z,20.67
2018-09-19T18:14:41.764Z,20.68
2018-09-19T18:17:10.762Z,20.71
2018-09-19T18:19:39.954Z,20.64
2018-09-19T18:22:08.569Z,20.64
2018-09-19T18:24:37.149Z,20.53
2018-09-19T18:27:05.998Z,20.58
2018-09-19T18:29:34.498Z,20.56
2018-09-19T18:32:03.124Z,20.44
2018-09-19T18:34:31.662Z,20.46
2018-09-19T18:37:00.238Z,20.54
2018-09-19T18:39:28.849Z,20.48
2018-09-19T18:41:57.457Z,20.50
2018-09-19T18:44:26.861Z,20.45
2018-09-19T18:46:55.442Z,20.62
2018-09-19T18:49:23.965Z,20.53
2018-09-19T18:51:52.470Z,20.48
2018-09-19T18:54:21.022Z,20.39
2018-09-19T18:56:49.885Z,20.42
2018-09-19T18:59:18.443Z,20.41
2018-09-19T19:01:47.006Z,20.35
2018-09-19T19:04:15.523Z,20.35
2018-09-19T19:06:44.126Z,20.31
2018-09-19T19:09:13.246Z,20.23
2018-09-19T19:11:42.085Z,20.15
2018-09-19T19:14:10.557Z,20.08
2018-09-19T19:16:39.173Z,20.11
2018-09-19T19:19:07.699Z,20.08
2018-09-19T19:21:36.302Z,20.09
2018-09-19T19:24:04.803Z,20.12
2018-09-19T19:26:33.378Z,20.06
2018-09-19T19:29:01.894Z,20.02
2018-09-19T19:31:31.517Z,19.97
2018-09-19T19:34:00.043Z,19.91
2018-09-19T19:36:28.539Z,19.97
2018-09-19T19:38:56.993Z,19.96
2018-09-19T19:41:25.613Z,20.00
2018-09-19T19:43:54.109Z,19.95
2018-09-19T19:46:22.612Z,19.89
2018-09-19T19:48:51.182Z,19.85
2018-09-19T19:51:20.284Z,19.80
2018-09-19T19:53:48.773Z,19.79
2018-09-19T19:56:17.347Z,19.76
2018-09-19T19:58:46.813Z,19.73
2018-09-19T20:01:15.311Z,19.66
2018-09-19T20:03:43.866Z,19.58
2018-09-19T20:06:12.381Z,19.57
2018-09-19T20:08:40.953Z,19.51
2018-09-19T20:11:09.718Z,19.47
2018-09-19T20:13:39.353Z,19.55
2018-09-19T20:16:08.357Z,19.47
2018-09-19T20:18:37.510Z,19.35
2018-09-19T20:21:06.210Z,19.31
2018-09-19T20:23:34.705Z,19.30
2018-09-19T20:26:03.221Z,19.25
2018-09-19T20:28:32.651Z,19.20
2018-09-19T20:31:01.575Z,19.19
2018-09-19T20:33:30.586Z,19.17
2018-09-19T20:35:59.066Z,19.18
2018-09-19T20:38:27.574Z,19.38
2018-09-19T20:40:56.063Z,19.48
2018-09-19T20:43:24.590Z,19.58
2018-09-19T20:45:54.470Z,19.68
2018-09-19T20:48:23.061Z,19.69
2018-09-19T20:50:51.586Z,19.76
2018-09-19T20:53:20.050Z,19.64
2018-09-19T20:55:48.765Z,19.49
2018-09-19T20:58:17.269Z,19.44
2018-09-19T21:00:46.329Z,19.32
2018-09-19T21:03:14.846Z,19.29
2018-09-19T21:05:43.450Z,19.25
2018-09-19T21:08:12.501Z,19.12
2018-09-19T21:10:41.011Z,19.16
2018-09-19T21:13:09.762Z,19.20
2018-09-19T21:15:38.275Z,19.18
2018-09-19T21:18:06.874Z,19.19
2018-09-19T21:20:35.505Z,19.17
2018-09-19T21:23:04.054Z,19.06
2018-09-19T21:25:32.571Z,18.99
2018-09-19T21:28:01.079Z,19.01
2018-09-19T21:30:29.603Z,19.01
2018-09-19T21:32:58.882Z,18.89
2018-09-19T21:35:27.402Z,18.87
2018-09-19T21:37:55.910Z,18.94
2018-09-19T21:40:24.401Z,18.94
2018-09-19T21:42:52.939Z,18.96
2018-09-19T21:45:21.470Z,18.93
2018-09-19T21:47:49.977Z,18.91
2018-09-19T21:50:18.510Z,18.84
2018-09-19T21:52:47.051Z,18.82
2018-09-19T21:55:15.549Z,18.87
2018-09-19T21:57:44.094Z,18.90
2018-09-19T22:00:12.847Z,18.91
2018-09-19T22:02:41.361Z,18.87
2018-09-19T22:05:10.016Z,18.94
2018-09-19T22:07:38.545Z,18.93
2018-09-19T22:10:07.626Z,18.94
2018-09-19T22:12:36.117Z,18.91
2018-09-19T22:15:05.081Z,18.93
2018-09-19T22:17:33.646Z,18.90
2018-09-19T22:20:03.002Z,18.85
2018-09-19T22:22:31.465Z,18.86
2018-09-19T22:25:00.253Z,18.96
2018-09-19T22:27:29.398Z,18.93
2018-09-19T22:29:57.853Z,19.08
2018-09-19T22:32:26.577Z,19.04
2018-09-19T22:34:55.089Z,19.04
2018-09-19T22:37:23.582Z,19.07
2018-09-19T22:39:53.473Z,19.01
2018-09-19T22:42:21.994Z,19.05
2018-09-19T22:44:50.498Z,19.08
2018-09-19T22:47:19.505Z,18.94
2018-09-19T22:49:48.066Z,18.97
2018-09-19T22:52:17.073Z,19.01
2018-09-19T22:54:46.205Z,18.97
2018-09-19T22:57:14.724Z,18.91
2018-09-19T22:59:43.212Z,18.88
2018-09-19T23:02:11.722Z,18.95
2018-09-19T23:04:40.254Z,18.91
2018-09-19T23:07:08.811Z,18.83
2018-09-19T23:09:37.294Z,18.82
2018-09-19T23:12:05.869Z,18.82
2018-09-19T23:14:35.679Z,18.70
2018-09-19T23:17:04.311Z,18.69
2018-09-19T23:19:32.805Z,18.67
2018-09-19T23:22:01.329Z,18.68
2018-09-19T23:24:30.069Z,18.66
2018-09-19T23:26:58.545Z,18.52
2018-09-19T23:29:27.090Z,18.46
2018-09-19T23:31:55.597Z,18.47
2018-09-19T23:34:24.803Z,18.55
2018-09-19T23:36:53.611Z,18.50
2018-09-19T23:39:22.093Z,18.52
2018-09-19T23:41:51.404Z,18.43
2018-09-19T23:44:21.238Z,18.43
2018-09-19T23:46:49.724Z,18.33
2018-09-19T23:49:18.238Z,18.35
2018-09-19T23:51:46.826Z,18.36
2018-09-19T23:54:15.949Z,18.49
2018-09-19T23:56:44.633Z,18.40
2018-09-19T23:59:13.166Z,18.41
